Time;durP1;ratioP1;P1;durP2;ratioP2;P2;SDS_P1;SDS_P2;PMS_P1;PMS_P2;Temp;Humidity;BMP_temperature;BMP_pressure;BME280_temperature;BME280_humidity;BME280_pressure;Samples;Min_cycle;Max_cycle;Signal;HPM_P1;HPM_P2
2022/04/01 00:00:43;;;;;;;2.47;1.88;;;4.70;99.90;;;;;;5090354;28;20032;-79
2022/04/01 00:03:09;;;;;;;2.15;1.95;;;4.70;99.90;;;;;;5089863;28;20562;-78
2022/04/01 00:05:35;;;;;;;2.45;2.15;;;4.60;99.90;;;;;;5088354;28;20024;-79
2022/04/01 00:08:02;;;;;;;2.33;1.75;;;4.50;99.90;;;;;;5090297;28;20137;-79
2022/04/01 00:10:28;;;;;;;2.00;1.90;;;4.50;99.90;;;;;;5083053;28;20020;-79
2022/04/01 00:12:55;;;;;;;1.88;1.73;;;4.50;99.90;;;;;;5091691;28;20024;-78
2022/04/01 00:15:21;;;;;;;1.75;1.65;;;4.40;99.90;;;;;;5090642;28;20020;-79
2022/04/01 00:17:46;;;;;;;2.72;1.77;;;4.40;99.90;;;;;;5073632;28;20040;-79
2022/04/01 00:20:13;;;;;;;2.00;1.90;;;4.20;99.90;;;;;;5091790;28;20016;-79
2022/04/01 00:22:40;;;;;;;2.92;2.05;;;4.10;99.90;;;;;;5083335;28;20221;-79
2022/04/01 00:25:07;;;;;;;2.58;2.00;;;4.20;99.90;;;;;;5073939;28;20111;-81
2022/04/01 00:27:33;;;;;;;2.67;2.00;;;4.10;99.90;;;;;;5085602;28;20086;-79
2022/04/01 00:29:58;;;;;;;3.40;2.05;;;4.00;99.90;;;;;;5086987;28;20020;-80
2022/04/01 00:32:25;;;;;;;1.85;1.75;;;3.90;99.90;;;;;;5092998;28;20035;-79
2022/04/01 00:34:51;;;;;;;4.22;2.35;;;3.90;99.90;;;;;;5091615;28;20108;-79
2022/04/01 00:37:17;;;;;;;3.20;1.98;;;3.90;99.90;;;;;;5089002;28;20024;-79
2022/04/01 00:39:44;;;;;;;2.33;2.13;;;3.80;99.90;;;;;;5089289;28;20519;-79
2022/04/01 00:42:09;;;;;;;2.60;2.25;;;3.90;99.90;;;;;;5074010;28;20039;-81
2022/04/01 00:44:37;;;;;;;2.53;1.80;;;3.90;99.90;;;;;;5093102;28;20020;-81
2022/04/01 00:47:06;;;;;;;1.75;1.65;;;4.00;99.90;;;;;;5089658;28;20119;-80
2022/04/01 00:49:33;;;;;;;3.08;1.80;;;3.90;99.90;;;;;;5090269;28;20020;-81
2022/04/01 00:52:02;;;;;;;2.72;1.77;;;3.90;99.90;;;;;;5088387;28;20028;-79
2022/04/01 00:54:28;;;;;;;2.90;1.77;;;3.90;99.90;;;;;;5071795;28;20045;-80
2022/04/01 00:56:54;;;;;;;2.30;1.73;;;3.80;99.90;;;;;;5072099;28;20028;-80
2022/04/01 00:59:21;;;;;;;3.13;2.08;;;3.80;99.90;;;;;;5090298;28;20016;-81
2022/04/01 01:01:49;;;;;;;3.55;1.98;;;3.80;99.90;;;;;;5082944;28;20411;-80
2022/04/01 01:04:17;;;;;;;1.83;1.70;;;3.90;99.90;;;;;;5089381;28;20016;-80
2022/04/01 01:06:44;;;;;;;2.30;2.10;;;3.80;99.90;;;;;;5084501;28;20024;-80
2022/04/01 01:09:12;;;;;;;5.25;2.10;;;3.80;99.90;;;;;;5088691;28;20092;-80
2022/04/01 01:11:38;;;;;;;4.10;2.22;;;3.70;99.90;;;;;;5091498;28;20028;-81
2022/04/01 01:14:08;;;;;;;2.13;1.80;;;3.80;99.90;;;;;;5078424;28;20031;-80
2022/04/01 01:16:35;;;;;;;2.30;1.90;;;3.70;99.90;;;;;;5077006;28;20055;-80
2022/04/01 01:19:03;;;;;;;1.92;1.83;;;3.60;99.90;;;;;;5081725;28;20028;-81
2022/04/01 01:21:30;;;;;;;1.60;1.50;;;3.60;99.90;;;;;;5089962;28;20055;-81
2022/04/01 01:24:04;;;;;;;1.70;1.60;;;3.70;99.90;;;;;;5073401;28;20509;-81
2022/04/01 01:26:35;;;;;;;2.63;1.67;;;3.80;99.90;;;;;;5092582;28;20062;-82
2022/04/01 01:29:04;;;;;;;2.00;1.70;;;3.70;99.90;;;;;;5077349;28;20033;-82
2022/04/01 01:31:29;;;;;;;2.38;1.95;;;3.50;99.90;;;;;;5083189;28;20027;-82
2022/04/01 01:33:57;;;;;;;3.42;2.20;;;3.50;99.90;;;;;;5090099;28;20027;-82
2022/04/01 01:36:25;;;;;;;3.80;2.00;;;3.50;99.90;;;;;;5085812;28;20024;-81
2022/04/01 01:38:51;;;;;;;2.80;1.73;;;3.50;99.90;;;;;;5087322;28;20024;-82
2022/04/01 01:41:17;;;;;;;2.50;2.10;;;3.60;99.90;;;;;;5072717;28;20055;-81
2022/04/01 01:43:43;;;;;;;3.22;2.40;;;3.60;99.90;;;;;;5072629;28;20158;-81
2022/04/01 01:46:09;;;;;;;1.85;1.75;;;3.50;99.90;;;;;;5080462;28;23225;-81
2022/04/01 01:48:35;;;;;;;4.15;1.85;;;3.60;99.90;;;;;;5088261;28;20460;-81
2022/04/01 01:56:29;;;;;;;4.97;2.30;;;3.40;99.90;;;;;;5087473;28;20043;-81
2022/04/01 01:58:55;;;;;;;7.65;3.00;;;3.40;99.90;;;;;;5081341;28;20016;-81
2022/04/01 02:01:22;;;;;;;4.07;2.38;;;3.40;99.90;;;;;;5081354;28;20417;-82
2022/04/01 02:03:48;;;;;;;3.13;2.20;;;3.40;99.90;;;;;;5081914;28;20028;-81
2022/04/01 02:06:13;;;;;;;2.63;2.20;;;3.50;99.90;;;;;;5086620;28;20555;-81
2022/04/01 02:08:40;;;;;;;5.20;2.20;;;3.50;99.90;;;;;;5086422;28;20119;-81
2022/04/01 02:11:07;;;;;;;2.42;2.03;;;3.50;99.90;;;;;;5082475;28;20483;-81
2022/04/01 02:13:33;;;;;;;5.35;2.20;;;3.60;99.90;;;;;;5081493;28;20023;-81
2022/04/01 02:15:59;;;;;;;3.20;2.10;;;3.50;99.90;;;;;;5083463;28;20021;-81
2022/04/01 02:18:25;;;;;;;2.58;1.65;;;3.40;99.90;;;;;;5088664;28;20082;-81
2022/04/01 02:20:51;;;;;;;3.13;2.83;;;3.40;99.90;;;;;;5089693;28;20028;-82
2022/04/01 02:23:17;;;;;;;2.70;2.03;;;3.50;99.90;;;;;;5083804;28;20103;-82
2022/04/01 02:25:43;;;;;;;6.10;2.13;;;3.50;99.90;;;;;;5074017;28;20456;-82
2022/04/01 02:28:10;;;;;;;4.95;2.20;;;3.50;99.90;;;;;;5072499;28;20059;-82
2022/04/01 02:30:37;;;;;;;2.97;1.70;;;3.50;99.90;;;;;;5085033;28;20099;-82
2022/04/01 02:33:02;;;;;;;2.17;1.95;;;3.40;99.90;;;;;;5068167;28;20561;-82
2022/04/01 02:35:29;;;;;;;4.28;2.40;;;3.40;99.90;;;;;;5075256;28;20021;-82
2022/04/01 02:37:55;;;;;;;2.90;2.28;;;3.30;99.90;;;;;;5084797;28;20016;-82
2022/04/01 02:40:22;;;;;;;2.30;2.10;;;3.30;99.90;;;;;;5088521;28;20032;-82
2022/04/01 02:42:49;;;;;;;3.72;2.28;;;3.20;99.90;;;;;;5081058;28;20013;-81
2022/04/01 02:45:15;;;;;;;2.17;1.92;;;3.30;99.90;;;;;;5069774;28;20029;-82
2022/04/01 02:47:40;;;;;;;3.50;2.20;;;3.20;99.90;;;;;;5086366;28;20455;-82
2022/04/01 02:50:07;;;;;;;4.53;2.45;;;3.20;99.90;;;;;;5080766;28;20024;-82
2022/04/01 02:52:33;;;;;;;4.70;2.50;;;3.20;99.90;;;;;;5083064;28;20060;-82
2022/04/01 02:54:58;;;;;;;4.03;2.08;;;3.10;99.90;;;;;;5078885;28;20048;-82
2022/04/01 02:57:24;;;;;;;3.08;2.30;;;3.20;99.90;;;;;;5073785;28;20035;-82
2022/04/01 02:59:50;;;;;;;2.92;2.40;;;3.30;99.90;;;;;;5089561;28;20028;-81
2022/04/01 03:02:16;;;;;;;3.88;2.30;;;3.20;99.90;;;;;;5082550;28;20410;-81
2022/04/01 03:04:42;;;;;;;3.67;2.50;;;3.20;99.90;;;;;;5088551;28;20043;-81
2022/04/01 03:07:08;;;;;;;2.65;2.00;;;3.20;99.90;;;;;;5088203;28;20077;-81
2022/04/01 03:09:33;;;;;;;6.30;2.58;;;3.20;99.90;;;;;;5087624;28;20087;-82
2022/04/01 03:12:00;;;;;;;4.45;3.15;;;3.20;99.90;;;;;;5087598;28;20515;-81
2022/04/01 03:14:26;;;;;;;3.17;2.33;;;2.90;99.90;;;;;;5090331;28;20078;-81
2022/04/01 03:16:52;;;;;;;2.88;2.25;;;2.90;99.90;;;;;;5088180;28;20017;-81
2022/04/01 03:19:19;;;;;;;3.58;2.03;;;2.80;99.90;;;;;;5086918;28;20115;-81
2022/04/01 03:21:45;;;;;;;5.22;2.30;;;2.80;99.90;;;;;;5085661;28;20070;-81
2022/04/01 03:24:11;;;;;;;2.60;2.20;;;2.70;99.90;;;;;;5086970;28;20052;-81
2022/04/01 03:26:40;;;;;;;2.90;2.20;;;2.80;99.90;;;;;;5086424;28;20034;-81
2022/04/01 03:29:07;;;;;;;4.28;2.45;;;2.70;99.90;;;;;;5087657;28;20032;-81
2022/04/01 03:31:33;;;;;;;3.92;2.17;;;2.60;99.90;;;;;;5081217;28;20034;-81
2022/04/01 03:33:59;;;;;;;3.72;2.33;;;2.50;99.90;;;;;;5081276;28;20016;-81
2022/04/01 03:36:25;;;;;;;3.10;2.38;;;2.50;99.90;;;;;;5090181;28;20505;-81
2022/04/01 03:38:51;;;;;;;5.40;2.42;;;2.50;99.90;;;;;;5091789;28;20243;-81
2022/04/01 03:41:19;;;;;;;3.67;2.17;;;2.50;99.90;;;;;;5081686;28;20094;-80
2022/04/01 03:43:45;;;;;;;3.13;2.42;;;2.50;99.90;;;;;;5088095;28;20020;-81
2022/04/01 03:46:13;;;;;;;6.28;2.42;;;2.50;99.90;;;;;;5091485;28;20070;-81
2022/04/01 03:48:42;;;;;;;3.25;2.50;;;2.50;99.90;;;;;;5085758;28;20520;-81
2022/04/01 03:51:09;;;;;;;4.82;2.47;;;2.50;99.90;;;;;;5089270;28;20057;-81
2022/04/01 03:53:36;;;;;;;5.88;2.58;;;2.60;99.90;;;;;;5088541;28;20035;-81
2022/04/01 03:56:06;;;;;;;8.57;2.85;;;2.60;99.90;;;;;;5072157;28;20053;-81
2022/04/01 03:58:34;;;;;;;4.25;2.50;;;2.60;99.90;;;;;;5083946;28;20031;-81
2022/04/01 04:01:02;;;;;;;4.13;2.45;;;2.70;99.90;;;;;;5086081;28;20093;-81
2022/04/01 04:03:31;;;;;;;3.90;2.40;;;2.70;99.90;;;;;;5072638;28;20040;-81
2022/04/01 04:05:58;;;;;;;4.95;2.72;;;2.70;99.90;;;;;;5088052;28;20032;-81
2022/04/01 04:08:24;;;;;;;8.10;2.90;;;2.60;99.90;;;;;;5093163;28;20093;-82
2022/04/01 04:10:51;;;;;;;3.90;2.53;;;2.60;99.90;;;;;;5092147;28;20070;-82
2022/04/01 04:13:19;;;;;;;4.32;2.00;;;2.50;99.90;;;;;;5092064;28;20032;-82
2022/04/01 04:16:18;;;;;;;5.88;2.58;;;2.50;99.90;;;;;;5087619;28;20033;-82
2022/04/01 04:19:00;;;;;;;5.53;2.83;;;2.50;99.90;;;;;;5069567;28;20115;-82
2022/04/01 04:21:31;;;;;;;4.57;2.50;;;2.40;99.90;;;;;;5072631;28;20520;-82
2022/04/01 04:23:59;;;;;;;5.03;2.55;;;2.40;99.90;;;;;;5090504;28;20066;-82
2022/04/01 04:26:30;;;;;;;4.85;2.63;;;2.50;99.90;;;;;;5093360;28;20093;-82
2022/04/01 04:29:08;;;;;;;6.38;2.38;;;2.50;99.90;;;;;;5089104;28;20032;-82
2022/04/01 04:31:36;;;;;;;6.07;3.00;;;2.50;99.90;;;;;;5076610;28;20016;-82
2022/04/01 04:34:04;;;;;;;5.47;2.40;;;2.40;99.90;;;;;;5079012;28;20020;-82
2022/04/01 04:36:36;;;;;;;6.75;2.30;;;2.50;99.90;;;;;;5091258;28;20066;-82
2022/04/01 04:39:06;;;;;;;3.95;2.10;;;2.60;99.90;;;;;;5089231;28;20085;-82
2022/04/01 04:41:33;;;;;;;4.40;2.70;;;2.60;99.90;;;;;;5071843;28;20509;-82
2022/04/01 04:44:00;;;;;;;9.55;2.33;;;2.70;99.90;;;;;;5080808;28;20052;-82
2022/04/01 04:46:27;;;;;;;4.18;2.22;;;2.60;99.90;;;;;;5089771;28;20047;-82
2022/04/01 04:48:55;;;;;;;6.50;2.72;;;2.70;99.90;;;;;;5088760;28;20031;-85
2022/04/01 04:51:25;;;;;;;10.70;2.58;;;2.70;99.90;;;;;;5086720;28;20051;-85
2022/04/01 04:53:51;;;;;;;4.93;2.50;;;2.70;99.90;;;;;;5072193;28;20024;-85
2022/04/01 04:56:21;;;;;;;8.70;3.55;;;2.70;99.90;;;;;;5075749;28;20072;-85
2022/04/01 04:58:47;;;;;;;8.73;3.53;;;2.70;99.90;;;;;;5073640;28;20028;-85
2022/04/01 05:01:31;;;;;;;5.65;3.03;;;2.70;99.90;;;;;;5082484;28;20020;-85
2022/04/01 05:04:14;;;;;;;5.63;2.53;;;2.60;99.90;;;;;;5090668;28;20030;-84
2022/04/01 05:07:15;;;;;;;4.78;3.03;;;2.70;99.90;;;;;;5084301;28;20021;-78
2022/04/01 05:10:04;;;;;;;8.27;2.58;;;2.70;99.90;;;;;;4994156;28;20068;-83
2022/04/01 05:12:37;;;;;;;5.85;2.50;;;2.70;99.90;;;;;;4993534;28;20060;-83
2022/04/01 05:15:08;;;;;;;6.50;2.38;;;2.70;99.90;;;;;;4989736;28;20054;-83
2022/04/01 05:18:19;;;;;;;4.30;2.50;;;2.70;99.90;;;;;;5009155;28;20025;-83
2022/04/01 05:20:59;;;;;;;6.80;2.45;;;2.70;99.90;;;;;;4991163;28;20046;-83
2022/04/01 05:23:39;;;;;;;4.88;2.35;;;2.70;99.90;;;;;;4988911;28;20030;-83
2022/04/01 05:26:16;;;;;;;6.33;2.17;;;2.70;99.90;;;;;;4987790;28;20041;-83
2022/04/01 05:28:48;;;;;;;7.88;2.10;;;2.60;99.90;;;;;;4988195;28;20068;-83
2022/04/01 05:31:18;;;;;;;;;;;2.60;99.90;;;;;;4989339;28;20044;-82
2022/04/01 05:34:22;;;;;;;5.77;2.33;;;2.70;99.90;;;;;;4983018;28;19914;-80
2022/04/01 05:36:53;;;;;;;3.70;1.77;;;2.90;99.90;;;;;;4963989;28;20076;-83
2022/04/01 05:39:20;;;;;;;3.80;1.70;;;2.80;99.90;;;;;;4969973;28;20578;-80
2022/04/01 05:41:46;;;;;;;3.25;1.67;;;2.90;99.90;;;;;;4986772;28;20038;-80
2022/04/01 05:44:13;;;;;;;3.65;1.42;;;3.00;99.90;;;;;;4972665;28;20065;-81
2022/04/01 05:46:40;;;;;;;6.25;2.22;;;3.10;99.90;;;;;;5002773;28;20040;-83
2022/04/01 05:49:06;;;;;;;3.65;1.92;;;3.00;99.90;;;;;;5027426;28;20106;-83
2022/04/01 05:51:33;;;;;;;5.13;2.33;;;2.80;99.90;;;;;;5047406;28;20077;-83
2022/04/01 05:54:00;;;;;;;5.55;2.55;;;2.80;99.90;;;;;;5047139;28;20025;-80
2022/04/01 05:56:27;;;;;;;10.13;2.63;;;3.00;99.90;;;;;;5029065;28;20102;-83
2022/04/01 05:58:53;;;;;;;7.35;2.20;;;2.80;99.90;;;;;;5090003;28;20028;-81
2022/04/01 06:01:26;;;;;;;8.70;1.77;;;2.80;99.90;;;;;;5089514;28;20520;-80
2022/04/01 06:04:10;;;;;;;7.63;1.83;;;2.80;99.90;;;;;;5081134;28;20029;-83
2022/04/01 06:06:41;;;;;;;9.23;2.42;;;2.60;99.90;;;;;;5083209;28;20025;-80
2022/04/01 06:09:21;;;;;;;10.75;2.30;;;2.60;99.90;;;;;;5087833;28;20164;-80
2022/04/01 06:12:06;;;;;;;4.93;1.88;;;2.70;99.90;;;;;;5091237;28;20021;-83
2022/04/01 06:15:09;;;;;;;13.40;2.30;;;2.60;99.90;;;;;;5085686;28;20046;-80
2022/04/01 06:17:49;;;;;;;6.32;2.38;;;2.60;99.90;;;;;;5070862;28;20502;-82
2022/04/01 06:20:17;;;;;;;5.32;2.25;;;2.50;99.90;;;;;;5082477;28;20085;-83
2022/04/01 06:22:55;;;;;;;5.43;2.28;;;2.50;99.90;;;;;;5081198;28;20016;-82
2022/04/01 06:25:28;;;;;;;3.60;2.40;;;2.40;99.90;;;;;;5080529;28;20051;-82
2022/04/01 06:28:07;;;;;;;9.00;2.22;;;2.40;99.90;;;;;;5079123;28;20563;-82
2022/04/01 06:30:33;;;;;;;7.63;2.60;;;2.50;99.90;;;;;;5075773;28;20020;-82
2022/04/01 06:33:12;;;;;;;6.45;2.10;;;2.50;99.90;;;;;;5089266;28;20049;-80
2022/04/01 06:35:47;;;;;;;4.32;2.28;;;2.60;99.90;;;;;;5071045;28;20032;-79
2022/04/01 06:38:53;;;;;;;5.47;2.20;;;2.50;99.90;;;;;;5073625;28;20035;-82
2022/04/01 06:41:21;;;;;;;4.15;1.95;;;2.50;99.90;;;;;;5074260;28;20043;-82
2022/04/01 06:43:48;;;;;;;9.43;2.45;;;2.70;99.90;;;;;;5077005;28;20024;-80
2022/04/01 06:46:14;;;;;;;6.68;2.13;;;2.80;99.90;;;;;;5088139;28;20038;-82
2022/04/01 06:48:41;;;;;;;9.80;2.67;;;2.60;99.90;;;;;;5088744;28;20023;-82
2022/04/01 06:51:08;;;;;;;7.47;2.22;;;2.70;99.90;;;;;;5071929;28;20174;-80
2022/04/01 06:53:37;;;;;;;5.30;2.13;;;2.60;99.90;;;;;;5091028;28;20024;-82
2022/04/01 06:56:04;;;;;;;8.10;2.40;;;2.70;99.90;;;;;;5085950;28;20072;-82
2022/04/01 06:58:30;;;;;;;7.93;2.33;;;2.90;99.90;;;;;;5083540;28;20052;-82
2022/04/01 07:00:57;;;;;;;4.75;2.55;;;2.80;99.90;;;;;;5080792;28;20086;-82
2022/04/01 07:03:23;;;;;;;6.13;2.10;;;3.00;99.90;;;;;;5084717;28;20023;-80
2022/04/01 07:05:49;;;;;;;7.25;1.85;;;2.90;99.90;;;;;;5086273;28;20444;-79
2022/04/01 07:08:16;;;;;;;4.65;1.90;;;3.10;99.90;;;;;;5092515;28;20020;-82
2022/04/01 07:10:42;;;;;;;4.70;2.20;;;4.50;99.90;;;;;;5085968;28;20035;-82
2022/04/01 07:13:10;;;;;;;5.32;2.22;;;5.60;99.90;;;;;;5078300;28;20028;-82
2022/04/01 07:15:36;;;;;;;6.88;1.90;;;9.00;98.00;;;;;;5089291;28;20021;-82
2022/04/01 07:18:02;;;;;;;7.60;1.83;;;10.10;95.00;;;;;;5074564;28;20025;-80
2022/04/01 07:20:29;;;;;;;6.75;2.88;;;9.50;93.50;;;;;;5083818;28;20409;-79
2022/04/01 07:22:55;;;;;;;5.82;2.33;;;8.90;95.70;;;;;;5080411;28;20039;-80
2022/04/01 07:25:22;;;;;;;3.63;1.95;;;5.30;99.90;;;;;;5078498;28;20024;-79
2022/04/01 07:27:52;;;;;;;4.78;1.83;;;4.00;99.90;;;;;;5085137;28;20103;-79
2022/04/01 07:30:17;;;;;;;5.82;1.98;;;3.60;99.90;;;;;;5077286;28;20498;-80
2022/04/01 07:32:44;;;;;;;8.23;2.40;;;6.90;99.90;;;;;;5090413;28;20023;-80
2022/04/01 07:35:13;;;;;;;7.63;1.83;;;8.70;97.70;;;;;;5087193;28;20494;-80
2022/04/01 07:37:41;;;;;;;5.03;1.92;;;7.70;98.10;;;;;;5091725;28;20035;-80
2022/04/01 07:40:08;;;;;;;9.75;3.30;;;6.60;99.90;;;;;;5091633;28;20081;-80
2022/04/01 07:42:35;;;;;;;7.97;1.95;;;7.10;98.50;;;;;;5091077;28;20020;-80
2022/04/01 07:45:04;;;;;;;8.68;2.63;;;5.20;99.90;;;;;;5092154;28;20141;-80
2022/04/01 07:47:33;;;;;;;7.18;2.03;;;4.10;99.90;;;;;;5094313;28;20020;-80
2022/04/01 07:50:00;;;;;;;5.18;1.60;;;3.60;99.90;;;;;;5078212;28;20021;-80
2022/04/01 07:52:26;;;;;;;9.90;2.00;;;3.80;99.90;;;;;;5085537;28;20043;-80
2022/04/01 07:54:53;;;;;;;5.85;1.60;;;3.60;99.90;;;;;;5083349;28;20068;-80
2022/04/01 07:57:19;;;;;;;3.97;1.40;;;3.90;99.90;;;;;;5076152;28;20020;-82
2022/04/01 07:59:46;;;;;;;7.97;1.95;;;3.70;99.90;;;;;;5094262;28;20024;-80
2022/04/01 08:02:13;;;;;;;5.30;2.08;;;3.70;99.90;;;;;;5091204;28;20075;-80
2022/04/01 08:04:39;;;;;;;9.10;2.35;;;3.90;99.90;;;;;;5086444;28;20039;-82
2022/04/01 08:07:05;;;;;;;9.88;2.75;;;4.70;99.90;;;;;;5090550;28;20019;-80
2022/04/01 08:09:33;;;;;;;5.18;2.30;;;5.60;99.90;;;;;;5092175;28;20035;-80
2022/04/01 08:11:59;;;;;;;8.50;3.13;;;6.30;99.90;;;;;;5091388;28;20028;-80
2022/04/01 08:14:25;;;;;;;10.57;3.05;;;5.70;99.90;;;;;;5086598;28;20017;-80
2022/04/01 08:16:50;;;;;;;10.30;2.45;;;4.80;99.90;;;;;;5090785;28;20043;-79
2022/04/01 08:19:16;;;;;;;5.82;2.10;;;4.90;99.90;;;;;;5091066;28;20024;-82
2022/04/01 08:21:44;;;;;;;5.10;2.30;;;5.20;99.90;;;;;;5090533;28;20446;-80
2022/04/01 08:24:11;;;;;;;7.53;2.00;;;5.80;99.90;;;;;;5071858;28;20036;-80
2022/04/01 08:26:37;;;;;;;4.38;1.60;;;6.70;99.90;;;;;;5087458;28;20409;-80
2022/04/01 08:29:03;;;;;;;4.13;1.85;;;7.00;99.90;;;;;;5091334;28;20024;-80
2022/04/01 08:31:30;;;;;;;4.75;1.88;;;7.40;99.70;;;;;;5083341;28;20047;-80
2022/04/01 08:33:57;;;;;;;5.28;1.85;;;7.40;99.50;;;;;;5082355;28;20103;-80
2022/04/01 08:36:24;;;;;;;4.95;1.85;;;7.00;98.40;;;;;;5075119;28;20028;-80
2022/04/01 08:38:50;;;;;;;5.07;1.80;;;7.70;98.70;;;;;;5092380;28;20020;-80
2022/04/01 08:41:18;;;;;;;5.07;1.95;;;7.80;98.10;;;;;;5086701;28;20028;-80
2022/04/01 08:43:46;;;;;;;5.15;1.80;;;7.60;98.40;;;;;;5075354;28;20028;-80
2022/04/01 08:46:12;;;;;;;6.10;1.65;;;7.50;98.80;;;;;;5081995;28;20117;-80
2022/04/01 08:48:38;;;;;;;5.32;1.92;;;7.20;98.50;;;;;;5090628;28;20020;-80
2022/04/01 08:51:04;;;;;;;7.88;3.00;;;6.50;99.20;;;;;;5090242;28;20490;-80
2022/04/01 08:53:37;;;;;;;11.00;3.60;;;6.30;99.80;;;;;;5093095;28;20020;-80
2022/04/01 08:56:03;;;;;;;10.07;3.20;;;7.00;98.30;;;;;;5075902;28;20041;-80
2022/04/01 08:58:29;;;;;;;8.98;2.38;;;6.50;98.30;;;;;;5076624;28;20033;-80
2022/04/01 09:00:58;;;;;;;6.15;2.15;;;6.50;99.40;;;;;;5072310;28;20028;-80
2022/04/01 09:03:24;;;;;;;6.72;2.13;;;6.20;98.70;;;;;;5089826;28;20098;-79
2022/04/01 09:05:54;;;;;;;3.33;1.63;;;7.40;98.00;;;;;;5088091;28;20024;-80
2022/04/01 09:08:27;;;;;;;6.70;2.15;;;7.70;97.90;;;;;;5085352;28;20119;-80
2022/04/01 09:10:57;;;;;;;9.57;2.70;;;7.40;97.20;;;;;;5078892;28;20031;-80
2022/04/01 09:13:27;;;;;;;7.85;2.75;;;6.70;97.70;;;;;;5078258;28;20024;-80
2022/04/01 09:15:54;;;;;;;7.75;2.67;;;7.20;97.70;;;;;;5073953;28;20024;-80
2022/04/01 09:18:42;;;;;;;6.93;2.50;;;6.70;98.00;;;;;;5089277;28;20044;-80
2022/04/01 09:21:10;;;;;;;6.68;2.10;;;7.20;99.40;;;;;;5070763;28;20028;-81
2022/04/01 09:23:36;;;;;;;5.03;2.28;;;8.50;97.50;;;;;;5087994;28;20024;-80
2022/04/01 09:26:02;;;;;;;7.57;2.25;;;8.70;96.80;;;;;;5089572;28;20175;-80
2022/04/01 09:28:30;;;;;;;5.57;1.60;;;8.40;95.20;;;;;;5079402;28;20031;-80
2022/04/01 09:31:10;;;;;;;8.48;1.85;;;9.10;95.80;;;;;;5071055;28;20103;-81
2022/04/01 09:33:47;;;;;;;5.40;1.52;;;8.30;94.40;;;;;;5083700;28;20039;-81
2022/04/01 09:36:24;;;;;;;8.27;2.45;;;7.20;95.50;;;;;;5087154;28;20064;-80
2022/04/01 09:39:03;;;;;;;5.65;2.22;;;6.30;95.60;;;;;;5083233;28;20027;-80
2022/04/01 09:41:31;;;;;;;7.00;2.30;;;6.00;97.20;;;;;;5075151;28;20032;-81
2022/04/01 09:44:12;;;;;;;13.15;3.90;;;6.00;97.80;;;;;;5087965;28;20031;-81
2022/04/01 09:46:49;;;;;;;6.40;2.95;;;5.90;97.30;;;;;;5073320;28;20036;-81
2022/04/01 09:49:27;;;;;;;10.55;2.55;;;5.70;96.90;;;;;;5080925;28;20028;-80
2022/04/01 09:51:53;;;;;;;9.82;1.80;;;5.50;97.40;;;;;;5088364;28;20111;-81
2022/04/01 09:54:20;;;;;;;6.72;2.10;;;5.70;98.10;;;;;;5089861;28;20118;-80
2022/04/01 09:56:47;;;;;;;4.28;1.73;;;5.70;97.90;;;;;;5092135;28;20032;-81
2022/04/01 09:59:15;;;;;;;3.63;1.83;;;6.50;97.30;;;;;;5090427;28;20028;-81
2022/04/01 10:01:43;;;;;;;8.35;2.80;;;6.50;96.40;;;;;;5081965;28;20035;-81
2022/04/01 10:04:12;;;;;;;9.30;2.95;;;5.80;96.60;;;;;;5087882;28;20110;-80
2022/04/01 10:06:39;;;;;;;5.45;2.38;;;6.00;96.80;;;;;;5083195;28;20031;-80
2022/04/01 10:09:11;;;;;;;5.57;2.22;;;6.20;96.70;;;;;;5088516;28;20216;-80
2022/04/01 10:11:39;;;;;;;;;;;6.60;96.30;;;;;;5092016;28;20027;-81
2022/04/01 10:14:18;;;;;;;3.17;1.38;;;6.60;95.80;;;;;;5081039;28;19994;-80
2022/04/01 10:16:46;;;;;;;6.78;1.63;;;6.20;96.50;;;;;;5081352;28;20104;-80
2022/04/01 10:19:24;;;;;;;5.97;1.77;;;5.90;95.90;;;;;;5069625;28;20070;-80
2022/04/01 10:21:51;;;;;;;5.18;1.42;;;5.50;95.90;;;;;;5071595;28;20024;-80
2022/04/01 10:24:37;;;;;;;4.13;1.60;;;5.60;96.30;;;;;;5088367;28;20099;-80
2022/04/01 10:27:30;;;;;;;8.25;2.70;;;6.20;97.30;;;;;;5087768;28;20059;-80
2022/04/01 10:29:58;;;;;;;7.15;3.13;;;6.60;96.30;;;;;;5086353;28;20108;-80
2022/04/01 10:32:29;;;;;;;6.25;2.20;;;6.60;95.90;;;;;;5083927;28;20024;-80
2022/04/01 10:35:00;;;;;;;5.53;2.33;;;5.80;94.80;;;;;;5083414;28;20016;-81
2022/04/01 10:37:28;;;;;;;7.43;2.90;;;5.30;95.30;;;;;;5080867;28;20407;-80
2022/04/01 10:39:58;;;;;;;6.28;2.72;;;5.30;96.90;;;;;;5083628;28;20498;-80
2022/04/01 10:42:35;;;;;;;7.03;2.08;;;5.20;96.80;;;;;;5088378;28;20053;-80
2022/04/01 10:45:16;;;;;;;3.40;1.70;;;5.60;96.30;;;;;;5089375;28;20374;-80
2022/04/01 10:53:45;;;;;;;7.57;2.28;;;6.10;96.20;;;;;;5081799;28;20039;-80
2022/04/01 10:56:26;;;;;;;8.35;1.88;;;6.50;95.70;;;;;;5071075;28;20139;-80
2022/04/01 10:59:14;;;;;;;4.93;1.85;;;6.60;95.40;;;;;;5088553;28;20046;-80
2022/04/01 11:02:04;;;;;;;6.47;1.77;;;6.50;96.40;;;;;;5081233;28;20097;-80
2022/04/01 11:04:32;;;;;;;5.72;1.58;;;6.50;95.40;;;;;;5074658;28;20124;-80
2022/04/01 11:07:02;;;;;;;5.45;1.80;;;7.00;95.10;;;;;;5078331;28;20028;-80
2022/04/01 11:09:40;;;;;;;8.30;1.95;;;6.80;93.40;;;;;;5083994;28;20024;-80
2022/04/01 11:12:15;;;;;;;5.28;2.05;;;7.10;92.90;;;;;;5085854;28;20024;-80
2022/04/01 11:15:11;;;;;;;4.38;1.50;;;7.10;91.00;;;;;;5090829;28;20032;-80
2022/04/01 11:17:37;;;;;;;4.13;1.50;;;7.00;91.30;;;;;;5089851;28;20051;-80
2022/04/01 11:20:10;;;;;;;4.13;1.98;;;7.10;91.20;;;;;;5088707;28;20106;-81
2022/04/01 11:22:52;;;;;;;3.97;1.52;;;7.10;91.50;;;;;;5082009;28;20042;-80
2022/04/01 11:25:32;;;;;;;3.78;2.08;;;7.00;90.70;;;;;;5083255;28;20031;-81
2022/04/01 11:28:14;;;;;;;5.70;2.47;;;7.00;90.50;;;;;;5087488;28;20105;-81
2022/04/01 11:30:40;;;;;;;5.53;2.13;;;7.00;90.40;;;;;;5088785;28;20020;-81
2022/04/01 11:33:17;;;;;;;8.63;3.15;;;7.10;91.20;;;;;;5088211;28;20203;-81
2022/04/01 11:35:45;;;;;;;6.28;2.33;;;6.40;93.20;;;;;;5090988;28;20439;-81
2022/04/01 11:38:16;;;;;;;2.13;1.55;;;6.20;92.20;;;;;;5087551;28;20016;-81
2022/04/01 11:40:43;;;;;;;3.92;1.80;;;6.00;93.10;;;;;;5088789;28;20031;-82
2022/04/01 11:43:11;;;;;;;3.97;1.50;;;5.60;93.40;;;;;;5079655;28;20032;-82
2022/04/01 11:45:44;;;;;;;5.93;2.00;;;5.60;94.10;;;;;;5088401;28;20039;-82
2022/04/01 11:48:22;;;;;;;3.70;1.40;;;5.70;93.90;;;;;;5068316;28;20027;-81
2022/04/01 11:50:54;;;;;;;9.40;1.83;;;6.00;94.00;;;;;;5086469;28;20066;-82
2022/04/01 11:53:19;;;;;;;4.25;1.55;;;6.30;94.30;;;;;;5090724;28;20030;-81
2022/04/01 11:55:45;;;;;;;5.78;1.95;;;6.90;93.40;;;;;;5092453;28;20118;-81
2022/04/01 11:58:11;;;;;;;7.75;1.83;;;7.30;92.70;;;;;;5088522;28;20494;-81
2022/04/01 12:00:37;;;;;;;6.70;1.83;;;7.40;91.40;;;;;;5072802;28;20029;-81
2022/04/01 12:03:03;;;;;;;3.28;1.45;;;7.30;91.60;;;;;;5090217;28;20028;-81
2022/04/01 12:05:31;;;;;;;3.85;1.55;;;7.20;90.70;;;;;;5093684;28;20028;-82
2022/04/01 12:10:59;;;;;;;4.70;1.77;;;7.00;91.70;;;;;;5092487;28;20480;-82
2022/04/01 12:13:28;;;;;;;3.15;1.58;;;7.00;92.00;;;;;;5080653;28;20021;-80
2022/04/01 12:15:56;;;;;;;4.22;1.67;;;6.80;91.40;;;;;;5072232;28;20021;-80
2022/04/01 12:18:23;;;;;;;4.80;1.52;;;6.80;91.00;;;;;;5074848;28;20048;-79
2022/04/01 12:20:54;;;;;;;6.13;1.73;;;6.50;92.20;;;;;;5089551;28;20028;-81
2022/04/01 12:23:22;;;;;;;9.10;2.55;;;6.20;92.20;;;;;;5086505;28;20012;-80
2022/04/01 12:25:53;;;;;;;7.28;2.15;;;6.60;91.90;;;;;;5091660;28;20031;-80
2022/04/01 12:28:20;;;;;;;5.35;1.80;;;7.20;92.20;;;;;;5091544;28;20020;-80
2022/04/01 12:30:50;;;;;;;4.60;1.45;;;7.70;92.50;;;;;;5084313;28;20063;-80
2022/04/01 12:33:17;;;;;;;3.70;1.60;;;7.80;92.00;;;;;;5089961;28;20028;-81
2022/04/01 12:35:56;;;;;;;3.47;1.20;;;7.10;90.80;;;;;;5093055;28;20180;-81
2022/04/01 12:38:23;;;;;;;5.80;1.60;;;7.10;91.70;;;;;;5080204;28;20032;-81
2022/04/01 12:40:49;;;;;;;4.88;1.48;;;7.50;90.80;;;;;;5082740;28;20051;-81
2022/04/01 12:43:43;;;;;;;10.27;1.83;;;7.10;91.10;;;;;;5090963;28;20028;-81
2022/04/01 12:46:11;;;;;;;3.22;1.77;;;7.10;91.60;;;;;;5090071;28;20031;-80
2022/04/01 12:48:56;;;;;;;9.38;1.75;;;6.70;90.30;;;;;;5088502;28;20043;-81
2022/04/01 12:51:33;;;;;;;5.10;1.30;;;6.30;90.60;;;;;;5075312;28;20024;-80
2022/04/01 12:54:12;;;;;;;2.05;0.88;;;6.80;91.30;;;;;;5075004;28;20100;-80
2022/04/01 12:56:50;;;;;;;3.65;1.10;;;7.20;90.90;;;;;;5087947;28;20437;-81
2022/04/01 12:59:17;;;;;;;1.73;0.90;;;7.40;90.50;;;;;;5083783;28;20036;-81
2022/04/01 13:02:05;;;;;;;4.93;1.50;;;7.50;90.10;;;;;;5081603;28;20050;-81
2022/04/01 13:04:39;;;;;;;3.70;1.05;;;7.50;88.90;;;;;;5076979;28;20090;-81
2022/04/01 13:07:08;;;;;;;3.42;1.10;;;7.30;88.20;;;;;;5082178;28;20094;-81
2022/04/01 13:09:53;;;;;;;1.85;1.00;;;7.30;89.40;;;;;;5091142;28;20028;-81
2022/04/01 13:12:38;;;;;;;4.70;1.20;;;7.50;90.60;;;;;;5072600;28;20009;-81
2022/04/01 13:15:07;;;;;;;3.50;0.90;;;7.60;89.50;;;;;;5086015;28;20028;-79
2022/04/01 13:18:00;;;;;;;2.00;0.63;;;7.60;88.00;;;;;;5072460;28;20013;-80
2022/04/01 13:20:35;;;;;;;4.38;1.27;;;7.50;87.20;;;;;;5074606;28;20032;-80
2022/04/01 13:23:03;;;;;;;3.00;1.13;;;7.50;86.20;;;;;;5081349;28;20013;-80
2022/04/01 13:25:31;;;;;;;2.63;0.80;;;7.90;84.30;;;;;;5082544;28;20111;-80
2022/04/01 13:27:57;;;;;;;1.80;1.00;;;8.30;88.40;;;;;;5090386;28;20027;-80